»·PEaware :: N822JH KPDX-KYKM

N822JH :: KPDX-KYKM

FLIGHT INFORMATION

Flight Status: Arrived
Operator: Privately registered:
United States
More flights under this callsign
Pilot: Anonymous 16594 (16594)
Aircraft: PIPER PA-24 COMMANCHE
(PA24)
More flights by this aircraft type
Origin: KPDX Portland Intl
United States
Destination: KYKM Yakima Air Term/Mcallister
United States
More flights between these airports :: More routes between these airports
Route: +
File this flight plan on PilotEdge
Remarks:
Altitude:
(Current/Filed)
13,500ft
Speed:
(Current/Filed)
158kts
Departed: 12-Sep-17 02:55 PM
Arrived: 12-Sep-17 03:49 PM
Distance/Time
Traveled:
104nm/0:54
Distance/Time
To Go:
Arrived

Flight Plot

Page will automatically refresh every two minutes.

Flight plan parsing failed; only flown route is shown


Map Options




Map Legend


Flown Route
Filed Route
Departure Airport
Arrival Airport
Navaid (VOR, NDB)
Fix

Horizontal Profiles

Position Reports

Time Latitude Longitude Heading Altitude Ground
Speed
12-Sep-17 14:34 45.587025 -122.584196 208 33ft 0kts
12-Sep-17 14:35 45.587025 -122.584196 208 33ft 0kts
12-Sep-17 14:36 45.587025 -122.584196 208 33ft 0kts
12-Sep-17 14:37 45.587024 -122.584197 208 33ft 0kts
12-Sep-17 14:38 45.587021 -122.584200 208 33ft 0kts
12-Sep-17 14:39 45.587018 -122.584202 208 33ft 0kts
12-Sep-17 14:40 45.587016 -122.584204 208 33ft 0kts
12-Sep-17 14:41 45.587014 -122.584205 208 33ft 0kts
12-Sep-17 14:42 45.587012 -122.584207 208 33ft 0kts
12-Sep-17 14:43 45.587010 -122.584209 208 33ft 0kts
12-Sep-17 14:44 45.587008 -122.584210 208 33ft 0kts
12-Sep-17 14:45 45.587006 -122.584212 208 33ft 0kts
12-Sep-17 14:46 45.587004 -122.584213 208 33ft 0kts
12-Sep-17 14:47 45.587002 -122.584215 208 33ft 0kts
12-Sep-17 14:48 45.587000 -122.584217 208 33ft 0kts
12-Sep-17 14:49 45.586998 -122.584218 208 33ft 0kts
12-Sep-17 14:50 45.586996 -122.584220 208 33ft 0kts
12-Sep-17 14:51 45.586993 -122.584222 209 33ft 0kts
12-Sep-17 14:52 45.588707 -122.583948 37 33ft 12kts
12-Sep-17 14:53 45.587222 -122.578930 122 33ft 3kts
12-Sep-17 14:54 45.587164 -122.578791 120 33ft 0kts
12-Sep-17 14:55 45.586631 -122.577409 119 33ft 18kts
12-Sep-17 14:56 45.583594 -122.569132 35 33ft 12kts
12-Sep-17 14:57 45.583755 -122.569005 27 33ft 0kts
12-Sep-17 14:58 45.583757 -122.569003 27 33ft 0kts
12-Sep-17 14:59 45.588893 -122.580536 294 124ft 100kts
12-Sep-17 15:00 45.605210 -122.623030 303 754ft 126kts
12-Sep-17 15:01 45.625969 -122.663283 311 937ft 118kts
12-Sep-17 15:02 45.650682 -122.694776 337 868ft 137kts
12-Sep-17 15:03 45.682840 -122.689819 55 1186ft 136kts
12-Sep-17 15:04 45.709624 -122.663166 338 1497ft 122kts
12-Sep-17 15:05 45.729736 -122.699529 309 1820ft 113kts
12-Sep-17 15:06 45.752773 -122.691563 56 2138ft 119kts
12-Sep-17 15:07 45.755793 -122.645148 107 2446ft 130kts
12-Sep-17 15:08 45.736853 -122.602088 134 2938ft 121kts
12-Sep-17 15:09 45.714828 -122.561649 123 3558ft 139kts
12-Sep-17 15:10 45.716261 -122.512839 63 4691ft 126kts
12-Sep-17 15:11 45.725844 -122.463096 79 6413ft 129kts
12-Sep-17 15:12 45.726747 -122.409606 94 6679ft 138kts
12-Sep-17 15:13 45.731767 -122.356513 75 7054ft 134kts
12-Sep-17 15:14 45.744428 -122.306528 55 7397ft 133kts
12-Sep-17 15:15 45.765659 -122.262930 43 8017ft 129kts
12-Sep-17 15:16 45.786919 -122.218340 47 8514ft 134kts
12-Sep-17 15:17 45.809565 -122.174529 47 9209ft 141kts
12-Sep-17 15:18 45.833260 -122.128756 46 10295ft 145kts
12-Sep-17 15:19 45.858033 -122.082411 47 10665ft 147kts
12-Sep-17 15:20 45.882830 -122.035503 50 11028ft 148kts
12-Sep-17 15:21 45.908526 -121.987881 47 11315ft 150kts
12-Sep-17 15:22 45.934327 -121.940137 48 11167ft 158kts
12-Sep-17 15:23 45.960020 -121.892574 47 11141ft 137kts
12-Sep-17 15:24 45.984400 -121.847328 47 11389ft 146kts
12-Sep-17 15:25 46.009634 -121.801004 48 11538ft 155kts
12-Sep-17 15:26 46.030832 -121.762998 47 11690ft 156kts
12-Sep-17 15:27 46.062807 -121.706665 47 11921ft 156kts
12-Sep-17 15:28 46.089492 -121.659405 48 12101ft 150kts
12-Sep-17 15:29 46.115426 -121.610119 53 12189ft 153kts
12-Sep-17 15:30 46.134648 -121.554188 74 12219ft 156kts
12-Sep-17 15:31 46.146223 -121.494025 75 12300ft 155kts
12-Sep-17 15:32 46.158918 -121.433529 63 12409ft 158kts
12-Sep-17 15:33 46.174140 -121.385496 65 13008ft 158kts
12-Sep-17 15:34 46.195018 -121.320165 52 13098ft 158kts
12-Sep-17 15:35 46.218397 -121.268620 55 13246ft 155kts
12-Sep-17 15:36 46.241406 -121.216965 55 13247ft 152kts
12-Sep-17 15:37 46.261390 -121.173238 54 13261ft 160kts
12-Sep-17 15:38 46.291042 -121.108585 55 13244ft 168kts
12-Sep-17 15:39 46.316535 -121.052060 53 13251ft 168kts
12-Sep-17 15:40 46.338458 -121.005453 54 13349ft 172kts
12-Sep-17 15:41 46.367162 -120.942740 54 13430ft 200kts
12-Sep-17 15:42 46.395532 -120.881764 53 13535ft 174kts
12-Sep-17 15:43 46.426075 -120.821343 32 12405ft 212kts
12-Sep-17 15:44 46.460894 -120.821958 234 11034ft 153kts
12-Sep-17 15:45 46.447258 -120.784636 41 9285ft 182kts
12-Sep-17 15:46 46.488853 -120.732463 35 6489ft 199kts
12-Sep-17 15:47 46.523567 -120.677592 53 5048ft 179kts
12-Sep-17 15:48 46.546945 -120.617869 69 3907ft 168kts
12-Sep-17 15:49 46.547201 -120.555743 104 3023ft 141kts
12-Sep-17 15:50 46.539958 -120.507175 95 2278ft 111kts
12-Sep-17 15:51 46.551074 -120.482467 293 1761ft 101kts
12-Sep-17 15:52 46.562863 -120.521390 288 1325ft 102kts
12-Sep-17 15:53 46.569902 -120.548751 320 1098ft 22kts
12-Sep-17 15:54 46.570304 -120.548728 21 1098ft 0kts
12-Sep-17 15:55 46.570479 -120.548219 112 1098ft 12kts
12-Sep-17 15:56 46.570409 -120.543360 87 1098ft 12kts
12-Sep-17 15:57 46.570366 -120.543256 172 1098ft 0kts

Navigation Log

Ident Type
Flight plan parsing failed, navigation log unavailable